createdAt,value
2022-12-23T00:00:22.213Z,43.04
2022-12-23T00:01:22.225Z,43.14
2022-12-23T00:02:22.382Z,43.14
2022-12-23T00:03:22.391Z,43.14
2022-12-23T00:04:22.317Z,43.14
2022-12-23T00:05:22.250Z,43.14
2022-12-23T00:06:22.279Z,43.14
2022-12-23T00:07:22.242Z,43.14
2022-12-23T00:08:22.255Z,43.14
2022-12-23T00:09:22.270Z,43.14
2022-12-23T00:10:22.287Z,43.14
2022-12-23T00:11:22.300Z,43.14
2022-12-23T00:12:22.313Z,43.14
2022-12-23T00:13:22.346Z,43.14
2022-12-23T00:14:22.354Z,43.14
2022-12-23T00:15:22.378Z,43.14
2022-12-23T00:16:22.617Z,43.14
2022-12-23T00:17:23.304Z,43.14
2022-12-23T00:18:22.359Z,43.14
2022-12-23T00:19:22.406Z,43.14
2022-12-23T00:20:22.372Z,43.14
2022-12-23T00:21:30.714Z,43.14
2022-12-23T00:22:22.389Z,43.14
2022-12-23T00:23:22.449Z,43.14
2022-12-23T00:24:22.413Z,43.14
2022-12-23T00:25:22.472Z,43.14
2022-12-23T00:26:22.442Z,43.14
2022-12-23T00:27:22.638Z,43.14
2022-12-23T00:28:22.433Z,43.14
2022-12-23T00:29:22.447Z,43.14
2022-12-23T00:30:22.471Z,43.14
2022-12-23T00:31:22.570Z,43.14
2022-12-23T00:32:22.486Z,43.14
2022-12-23T00:33:22.494Z,43.14
2022-12-23T00:34:22.522Z,43.24
2022-12-23T00:35:22.516Z,43.24
2022-12-23T00:36:22.675Z,43.14
2022-12-23T00:37:22.579Z,43.24
2022-12-23T00:38:22.623Z,43.24
2022-12-23T00:39:22.602Z,43.24
2022-12-23T00:40:22.619Z,43.24
2022-12-23T00:41:22.648Z,43.24
2022-12-23T00:42:22.655Z,43.24
2022-12-23T00:43:22.678Z,43.24
2022-12-23T00:44:22.691Z,43.24
2022-12-23T00:45:22.770Z,43.24
2022-12-23T00:46:22.778Z,43.24
2022-12-23T00:47:22.753Z,43.24
2022-12-23T00:48:22.788Z,43.24
2022-12-23T00:49:22.801Z,43.24
2022-12-23T00:50:22.821Z,43.24
2022-12-23T00:51:22.852Z,43.24
2022-12-23T00:52:22.868Z,43.24
2022-12-23T00:53:22.927Z,43.26
2022-12-23T00:54:22.882Z,43.24
2022-12-23T00:55:22.891Z,43.26
2022-12-23T00:56:22.907Z,43.24
2022-12-23T00:57:22.940Z,43.24
2022-12-23T00:58:22.948Z,43.24
2022-12-23T00:59:22.969Z,43.26
2022-12-23T01:00:23.008Z,43.26
2022-12-23T01:01:23.141Z,43.26
2022-12-23T01:02:23.407Z,43.26
2022-12-23T01:03:23.151Z,43.26
2022-12-23T01:04:23.032Z,43.26
2022-12-23T01:05:23.052Z,43.36
2022-12-23T01:06:23.078Z,43.36
2022-12-23T01:07:23.097Z,43.26
2022-12-23T01:08:23.114Z,43.26
2022-12-23T01:09:23.134Z,43.26
2022-12-23T01:10:23.104Z,43.26
2022-12-23T01:11:23.119Z,43.26
2022-12-23T01:12:23.160Z,43.26
2022-12-23T01:13:23.246Z,43.26
2022-12-23T01:14:23.176Z,43.26
2022-12-23T01:15:23.197Z,43.26
2022-12-23T01:16:23.253Z,43.26
2022-12-23T01:17:23.430Z,43.26
2022-12-23T01:18:23.247Z,43.26
2022-12-23T01:19:23.237Z,43.26
2022-12-23T01:20:23.256Z,43.26
2022-12-23T01:21:23.269Z,43.26
2022-12-23T01:22:23.311Z,43.26
2022-12-23T01:23:23.332Z,43.36
2022-12-23T01:24:23.373Z,43.26
2022-12-23T01:25:23.368Z,43.26
2022-12-23T01:26:23.381Z,43.26
2022-12-23T01:27:23.416Z,43.36
2022-12-23T01:28:23.440Z,43.36
2022-12-23T01:29:23.444Z,43.26
2022-12-23T01:30:23.441Z,43.36
2022-12-23T01:31:23.552Z,43.26
2022-12-23T01:32:23.476Z,43.36
2022-12-23T01:33:23.506Z,43.26
2022-12-23T01:34:23.524Z,43.26
2022-12-23T01:35:23.545Z,43.26
2022-12-23T01:36:23.571Z,43.26
2022-12-23T01:37:23.580Z,43.26
2022-12-23T01:38:23.601Z,43.36
2022-12-23T01:39:23.624Z,43.36
2022-12-23T01:40:23.636Z,43.26
2022-12-23T01:41:23.648Z,43.36
2022-12-23T01:42:23.683Z,43.36
2022-12-23T01:43:24.478Z,43.36
2022-12-23T01:44:23.722Z,43.36
2022-12-23T01:45:23.949Z,43.36
2022-12-23T01:46:23.836Z,43.36
2022-12-23T01:47:23.787Z,43.36
2022-12-23T01:48:23.808Z,43.36
2022-12-23T01:49:23.852Z,43.36
2022-12-23T01:50:23.836Z,43.36
2022-12-23T01:51:23.859Z,43.36
2022-12-23T01:52:23.867Z,43.36
2022-12-23T01:53:23.891Z,43.36
2022-12-23T01:54:23.941Z,43.36
2022-12-23T01:55:23.905Z,43.36
2022-12-23T01:56:23.946Z,43.36
2022-12-23T01:57:23.955Z,43.36
2022-12-23T01:58:23.952Z,43.36
2022-12-23T01:59:23.989Z,43.36
2022-12-23T02:00:24.020Z,43.36
2022-12-23T02:01:24.211Z,43.36
2022-12-23T02:02:24.248Z,43.36
2022-12-23T02:03:24.156Z,43.36
2022-12-23T02:04:24.074Z,43.36
2022-12-23T02:05:24.077Z,43.36
2022-12-23T02:06:24.114Z,43.36
2022-12-23T02:07:24.129Z,43.36
2022-12-23T02:08:24.162Z,43.36
2022-12-23T02:09:24.190Z,43.36
2022-12-23T02:10:24.212Z,43.36
2022-12-23T02:11:24.210Z,43.36
2022-12-23T02:12:24.281Z,43.36
2022-12-23T02:13:24.250Z,43.36
2022-12-23T02:14:24.282Z,43.36
2022-12-23T02:15:24.291Z,43.36
2022-12-23T02:16:24.333Z,43.36
2022-12-23T02:17:24.324Z,43.36
2022-12-23T02:18:24.336Z,43.36
2022-12-23T02:19:24.313Z,43.36
2022-12-23T02:20:24.282Z,43.46
2022-12-23T02:21:24.322Z,43.48
2022-12-23T02:22:24.317Z,43.46
2022-12-23T02:23:24.326Z,43.36
2022-12-23T02:24:24.335Z,43.46
2022-12-23T02:25:24.358Z,43.48
2022-12-23T02:26:24.398Z,43.46
2022-12-23T02:27:24.354Z,43.36
2022-12-23T02:28:24.357Z,43.36
2022-12-23T02:29:24.386Z,43.36
2022-12-23T02:30:24.383Z,43.36
2022-12-23T02:31:24.495Z,43.36
2022-12-23T02:32:24.402Z,43.36
2022-12-23T02:33:24.454Z,43.36
2022-12-23T02:34:24.472Z,43.46
2022-12-23T02:35:24.475Z,43.48
2022-12-23T02:36:24.500Z,43.48
2022-12-23T02:37:24.512Z,43.48
2022-12-23T02:38:24.526Z,43.48
2022-12-23T02:39:24.526Z,43.48
2022-12-23T02:40:24.590Z,43.48
2022-12-23T02:41:24.538Z,43.48
2022-12-23T02:42:24.552Z,43.48
2022-12-23T02:43:24.558Z,43.48
2022-12-23T02:44:24.576Z,43.48
2022-12-23T02:45:24.585Z,43.48
2022-12-23T02:46:24.708Z,43.48
2022-12-23T02:47:24.604Z,43.48
2022-12-23T02:48:24.604Z,43.48
2022-12-23T02:49:24.644Z,43.48
2022-12-23T02:50:24.622Z,43.48
2022-12-23T02:51:24.616Z,43.48
2022-12-23T02:52:24.618Z,43.48
2022-12-23T02:53:24.622Z,43.48
2022-12-23T02:54:24.643Z,43.48
2022-12-23T02:55:24.670Z,43.48
2022-12-23T02:56:24.673Z,43.48
2022-12-23T02:57:24.676Z,43.48
2022-12-23T02:58:24.874Z,43.48
2022-12-23T02:59:24.924Z,43.48
2022-12-23T03:00:24.709Z,43.48
2022-12-23T03:01:24.916Z,43.48
2022-12-23T03:02:24.892Z,43.48
2022-12-23T03:03:24.815Z,43.48
2022-12-23T03:04:24.773Z,43.48
2022-12-23T03:05:24.902Z,43.48
2022-12-23T03:06:24.774Z,43.48
2022-12-23T03:07:24.799Z,43.48
2022-12-23T03:08:24.824Z,43.48
2022-12-23T03:09:24.851Z,43.48
2022-12-23T03:10:24.879Z,43.48
2022-12-23T03:11:24.887Z,43.48
2022-12-23T03:12:24.903Z,43.48
2022-12-23T03:13:24.951Z,43.48
2022-12-23T03:14:24.914Z,43.48
2022-12-23T03:15:25.024Z,43.48
2022-12-23T03:16:25.051Z,43.48
2022-12-23T03:17:24.992Z,43.48
2022-12-23T03:18:25.009Z,43.58
2022-12-23T03:19:25.037Z,43.58
2022-12-23T03:20:25.007Z,43.48
2022-12-23T03:21:25.065Z,43.48
2022-12-23T03:22:25.035Z,43.48
2022-12-23T03:23:25.055Z,43.48
2022-12-23T03:24:25.069Z,43.48
2022-12-23T03:25:25.079Z,43.48
2022-12-23T03:26:25.100Z,43.48
2022-12-23T03:27:25.122Z,43.58
2022-12-23T03:28:25.145Z,43.58
2022-12-23T03:29:25.152Z,43.48
2022-12-23T03:30:25.162Z,43.48
2022-12-23T03:31:25.289Z,43.48
2022-12-23T03:32:25.154Z,43.48
2022-12-23T03:33:25.177Z,43.48
2022-12-23T03:34:25.182Z,43.58
2022-12-23T03:35:25.191Z,43.58
2022-12-23T03:36:25.204Z,43.58
2022-12-23T03:37:25.223Z,43.58
2022-12-23T03:38:25.188Z,43.58
2022-12-23T03:39:25.201Z,43.58
2022-12-23T03:40:25.192Z,43.58
2022-12-23T03:41:25.204Z,43.58
2022-12-23T03:42:25.208Z,43.58
2022-12-23T03:43:25.239Z,43.58
2022-12-23T03:44:26.393Z,43.58
2022-12-23T03:45:41.587Z,43.58
2022-12-23T03:46:25.305Z,43.68
2022-12-23T03:47:25.266Z,43.68
2022-12-23T03:48:25.295Z,43.68
2022-12-23T03:49:25.314Z,43.68
2022-12-23T03:50:25.364Z,43.68
2022-12-23T03:51:25.355Z,43.68
2022-12-23T03:52:25.345Z,43.58
2022-12-23T03:53:25.378Z,43.58
2022-12-23T03:54:25.365Z,43.48
2022-12-23T03:55:25.344Z,43.38
2022-12-23T03:56:25.353Z,43.26
2022-12-23T03:57:25.383Z,43.06
2022-12-23T03:58:25.409Z,42.83
2022-12-23T03:59:25.472Z,42.74
2022-12-23T04:00:25.429Z,42.52
2022-12-23T04:01:25.512Z,42.52
2022-12-23T04:02:25.616Z,42.32
2022-12-23T04:03:25.491Z,42.10
2022-12-23T04:04:25.463Z,41.99
2022-12-23T04:05:25.489Z,41.79
2022-12-23T04:06:25.529Z,41.77
2022-12-23T04:07:25.502Z,41.57
2022-12-23T04:08:25.526Z,41.35
2022-12-23T04:09:25.561Z,41.35
2022-12-23T04:10:25.565Z,41.25
2022-12-23T04:11:25.597Z,41.05
2022-12-23T04:12:25.613Z,41.03
2022-12-23T04:13:25.609Z,41.03
2022-12-23T04:14:25.631Z,40.93
2022-12-23T04:15:25.653Z,40.93
2022-12-23T04:16:25.732Z,40.83
2022-12-23T04:17:25.692Z,40.71
2022-12-23T04:18:25.711Z,40.71
2022-12-23T04:19:25.745Z,40.71
2022-12-23T04:20:25.791Z,40.61
2022-12-23T04:21:25.748Z,40.61
2022-12-23T04:22:25.768Z,40.41
2022-12-23T04:23:25.777Z,40.39
2022-12-23T04:24:25.807Z,40.30
2022-12-23T04:25:25.847Z,40.39
2022-12-23T04:26:25.858Z,40.30
2022-12-23T04:27:25.871Z,40.39
2022-12-23T04:28:25.881Z,40.39
2022-12-23T04:29:25.875Z,40.30
2022-12-23T04:30:31.539Z,40.19
2022-12-23T04:31:25.960Z,40.19
2022-12-23T04:32:25.902Z,40.19
2022-12-23T04:33:25.946Z,40.17
2022-12-23T04:34:25.951Z,40.17
2022-12-23T04:35:26.009Z,40.08
2022-12-23T04:36:25.975Z,40.17
2022-12-23T04:37:25.998Z,40.08
2022-12-23T04:38:26.041Z,40.08
2022-12-23T04:39:26.045Z,40.08
2022-12-23T04:40:26.053Z,40.08
2022-12-23T04:41:26.097Z,40.08
2022-12-23T04:42:26.064Z,40.08
2022-12-23T04:43:26.097Z,40.08
2022-12-23T04:44:26.117Z,40.08
2022-12-23T04:45:26.156Z,40.08
2022-12-23T04:46:26.298Z,39.98
2022-12-23T04:47:26.171Z,40.08
2022-12-23T04:48:26.199Z,40.06
2022-12-23T04:49:26.229Z,39.95
2022-12-23T04:50:26.240Z,39.95
2022-12-23T04:51:26.256Z,39.95
2022-12-23T04:52:26.301Z,39.95
2022-12-23T04:53:26.264Z,39.95
2022-12-23T04:54:26.297Z,39.95
2022-12-23T04:55:26.301Z,39.95
2022-12-23T04:56:26.311Z,40.06
2022-12-23T04:57:26.390Z,39.95
2022-12-23T04:58:26.355Z,40.06
2022-12-23T04:59:26.374Z,39.95
2022-12-23T05:00:26.394Z,40.06
2022-12-23T05:01:26.468Z,40.06
2022-12-23T05:02:26.632Z,40.06
2022-12-23T05:03:26.452Z,40.06
2022-12-23T05:04:26.409Z,40.06
2022-12-23T05:05:26.428Z,40.06
2022-12-23T05:06:26.390Z,40.06
2022-12-23T05:07:26.404Z,40.06
2022-12-23T05:08:26.463Z,40.16
2022-12-23T05:09:26.444Z,40.06
2022-12-23T05:10:26.465Z,40.06
2022-12-23T05:11:26.484Z,40.06
2022-12-23T05:12:26.492Z,40.06
2022-12-23T05:13:26.523Z,40.06
2022-12-23T05:14:26.530Z,40.06
2022-12-23T05:15:26.555Z,40.16
2022-12-23T05:16:26.649Z,40.16
2022-12-23T05:17:26.546Z,40.16
2022-12-23T05:18:26.603Z,40.16
2022-12-23T05:19:26.562Z,40.16
2022-12-23T05:20:26.564Z,40.16
2022-12-23T05:21:26.577Z,40.16
2022-12-23T05:22:26.598Z,40.16
2022-12-23T05:23:26.627Z,40.16
2022-12-23T05:24:26.633Z,40.16
2022-12-23T05:25:26.644Z,40.16
2022-12-23T05:26:26.664Z,40.25
2022-12-23T05:27:26.665Z,40.25
2022-12-23T05:28:26.684Z,40.25
2022-12-23T05:29:26.740Z,40.25
2022-12-23T05:30:26.715Z,40.25
2022-12-23T05:31:26.784Z,40.25
2022-12-23T05:32:26.745Z,40.36
2022-12-23T05:33:26.820Z,40.36
2022-12-23T05:34:26.781Z,40.37
2022-12-23T05:35:26.782Z,40.37
2022-12-23T05:36:26.819Z,40.36
2022-12-23T05:37:26.846Z,40.36
2022-12-23T05:38:26.880Z,40.37
2022-12-23T05:39:26.885Z,40.37
2022-12-23T05:40:27.554Z,40.47
2022-12-23T05:41:26.922Z,40.37
2022-12-23T05:42:26.968Z,40.37
2022-12-23T05:43:26.984Z,40.37
2022-12-23T05:44:26.991Z,40.47
2022-12-23T05:45:27.075Z,40.47
2022-12-23T05:46:27.514Z,40.47
2022-12-23T05:47:27.069Z,40.47
2022-12-23T05:48:27.108Z,40.47
2022-12-23T05:49:27.086Z,40.47
2022-12-23T05:50:27.094Z,40.47
2022-12-23T05:51:27.138Z,40.47
2022-12-23T05:52:27.142Z,40.47
2022-12-23T05:53:27.182Z,40.47
2022-12-23T05:54:27.202Z,40.47
2022-12-23T05:55:27.203Z,40.47
2022-12-23T05:56:27.225Z,40.47
2022-12-23T05:57:27.247Z,40.47
2022-12-23T05:58:27.263Z,40.47
2022-12-23T05:59:30.907Z,40.47
2022-12-23T06:01:53.384Z,40.58
2022-12-23T06:02:54.101Z,40.58
2022-12-23T06:03:53.350Z,40.58
2022-12-23T06:04:53.161Z,40.58
2022-12-23T06:05:53.156Z,40.58
2022-12-23T06:06:53.163Z,40.58
2022-12-23T06:07:53.189Z,40.67
2022-12-23T06:08:57.621Z,40.58
2022-12-23T06:09:53.194Z,40.58
2022-12-23T06:10:53.201Z,40.58
2022-12-23T06:11:53.235Z,40.58
2022-12-23T06:12:53.255Z,40.67
2022-12-23T06:13:53.263Z,40.58
2022-12-23T06:14:53.277Z,40.67
2022-12-23T06:15:53.293Z,40.67
2022-12-23T06:16:53.368Z,40.67
2022-12-23T06:17:53.315Z,40.67
2022-12-23T06:18:53.334Z,40.67
2022-12-23T06:19:53.352Z,40.69
2022-12-23T06:20:53.376Z,40.69
2022-12-23T06:21:53.393Z,40.69
2022-12-23T06:22:53.399Z,40.69
2022-12-23T06:23:53.421Z,40.69
2022-12-23T06:24:53.443Z,40.69
2022-12-23T06:25:53.427Z,40.69
2022-12-23T06:26:57.059Z,40.69
2022-12-23T06:27:53.452Z,40.80
2022-12-23T06:28:53.451Z,40.80
2022-12-23T06:29:53.465Z,40.80
2022-12-23T06:30:53.487Z,40.80
2022-12-23T06:31:53.656Z,40.80
2022-12-23T06:32:54.039Z,40.80
2022-12-23T06:33:53.631Z,40.80
2022-12-23T06:34:53.583Z,40.80
2022-12-23T06:35:53.617Z,40.80
2022-12-23T06:36:53.571Z,40.80
2022-12-23T06:37:53.559Z,40.89
2022-12-23T06:38:53.635Z,40.80
2022-12-23T06:39:53.607Z,40.80
2022-12-23T06:40:53.762Z,40.89
2022-12-23T06:41:53.581Z,40.89
2022-12-23T06:42:53.586Z,40.89
2022-12-23T06:43:54.609Z,40.89
2022-12-23T06:44:53.691Z,40.89
2022-12-23T06:45:53.687Z,40.89
2022-12-23T06:46:53.671Z,40.89
2022-12-23T06:47:53.685Z,40.89
2022-12-23T06:48:53.764Z,40.99
2022-12-23T06:49:53.707Z,40.99
2022-12-23T06:50:53.705Z,40.99
2022-12-23T06:51:53.745Z,40.99
2022-12-23T06:52:53.722Z,40.99
2022-12-23T06:53:53.756Z,40.99
2022-12-23T06:54:53.779Z,41.02
2022-12-23T06:55:53.794Z,40.99
2022-12-23T06:56:53.797Z,40.99
2022-12-23T06:57:53.810Z,41.02
2022-12-23T06:58:53.821Z,41.02
2022-12-23T06:59:53.827Z,41.11
2022-12-23T07:00:53.900Z,41.11
2022-12-23T07:01:53.942Z,41.11
2022-12-23T07:02:53.961Z,41.11
2022-12-23T07:03:54.337Z,41.11
2022-12-23T07:04:53.919Z,41.11
2022-12-23T07:05:53.908Z,41.11
2022-12-23T07:06:53.909Z,41.11
2022-12-23T07:07:53.907Z,41.11
2022-12-23T07:08:54.079Z,41.21
2022-12-23T07:09:53.916Z,41.82
2022-12-23T07:10:54.064Z,43.82
2022-12-23T07:11:53.934Z,44.62
2022-12-23T07:12:53.982Z,44.92
2022-12-23T07:13:54.008Z,45.01
2022-12-23T07:14:53.994Z,45.51
2022-12-23T07:15:53.977Z,45.14
2022-12-23T07:16:54.097Z,44.12
2022-12-23T07:17:54.062Z,43.71
2022-12-23T07:18:54.175Z,43.71
2022-12-23T07:19:54.074Z,43.71
2022-12-23T07:20:54.048Z,43.62
2022-12-23T07:21:54.106Z,43.51
2022-12-23T07:22:54.081Z,43.41
2022-12-23T07:23:54.106Z,43.41
2022-12-23T07:24:54.125Z,43.32
2022-12-23T07:25:54.169Z,43.32
2022-12-23T07:26:54.181Z,43.32
2022-12-23T07:27:54.188Z,43.32
2022-12-23T07:28:54.206Z,43.32
2022-12-23T07:29:54.233Z,43.21
2022-12-23T07:30:54.237Z,43.32
2022-12-23T07:31:54.404Z,43.21
2022-12-23T07:32:54.294Z,43.21
2022-12-23T07:33:54.309Z,43.32
2022-12-23T07:34:54.403Z,43.21
2022-12-23T07:35:54.331Z,43.21
2022-12-23T07:36:54.361Z,43.21
2022-12-23T07:37:54.411Z,43.21
2022-12-23T07:38:54.369Z,43.21
2022-12-23T07:39:54.399Z,43.21
2022-12-23T07:40:54.432Z,43.21
2022-12-23T07:42:16.499Z,43.21
2022-12-23T07:42:54.537Z,43.12
2022-12-23T07:43:54.494Z,43.12
2022-12-23T07:44:54.481Z,43.12
2022-12-23T07:45:59.917Z,43.12
2022-12-23T07:46:54.523Z,43.13
2022-12-23T07:47:54.530Z,43.13
2022-12-23T07:48:54.496Z,43.13
2022-12-23T07:49:54.512Z,43.13
2022-12-23T07:50:54.553Z,43.13
2022-12-23T07:51:54.617Z,43.13
2022-12-23T07:52:54.569Z,43.13
2022-12-23T07:53:54.615Z,43.04
2022-12-23T07:54:54.574Z,43.13
2022-12-23T07:55:56.688Z,43.04
2022-12-23T07:56:54.989Z,43.04
2022-12-23T07:57:54.617Z,43.04
2022-12-23T07:58:54.691Z,43.04
2022-12-23T07:59:54.672Z,43.04
2022-12-23T08:00:54.855Z,42.93
2022-12-23T08:01:54.995Z,43.04
2022-12-23T08:02:54.770Z,43.04
2022-12-23T08:03:54.799Z,43.04
2022-12-23T08:04:54.717Z,43.04
2022-12-23T08:05:54.640Z,43.04
2022-12-23T08:06:54.700Z,42.93
2022-12-23T08:07:54.667Z,42.93
2022-12-23T08:08:54.678Z,42.93
2022-12-23T08:09:54.835Z,42.93
2022-12-23T08:10:54.654Z,42.93
2022-12-23T08:11:54.674Z,42.93
2022-12-23T08:12:54.690Z,42.93
2022-12-23T08:13:54.719Z,42.93
2022-12-23T08:14:54.733Z,42.93
2022-12-23T08:15:55.346Z,42.93
2022-12-23T08:16:54.860Z,42.93
2022-12-23T08:17:54.829Z,42.93
2022-12-23T08:18:54.821Z,42.93
2022-12-23T08:19:54.805Z,42.83
2022-12-23T08:20:54.827Z,42.83
2022-12-23T08:21:54.875Z,42.83
2022-12-23T08:22:54.868Z,42.83
2022-12-23T08:23:54.880Z,42.83
2022-12-23T08:24:54.925Z,42.83
2022-12-23T08:25:54.954Z,42.83
2022-12-23T08:26:54.932Z,42.83
2022-12-23T08:27:54.917Z,42.83
2022-12-23T08:28:54.942Z,42.83
2022-12-23T08:29:54.948Z,42.83
2022-12-23T08:30:55.023Z,42.83
2022-12-23T08:31:55.103Z,42.83
2022-12-23T08:32:54.976Z,42.83
2022-12-23T08:33:54.995Z,42.83
2022-12-23T08:34:55.031Z,42.83
2022-12-23T08:35:55.050Z,42.83
2022-12-23T08:36:55.074Z,42.83
2022-12-23T08:37:55.073Z,42.83
2022-12-23T08:38:55.111Z,42.74
2022-12-23T08:39:55.116Z,42.85
2022-12-23T08:40:55.161Z,42.74
2022-12-23T08:41:55.220Z,42.76
2022-12-23T08:42:55.188Z,42.76
2022-12-23T08:43:55.238Z,42.74
2022-12-23T08:44:55.204Z,42.74
2022-12-23T08:45:55.273Z,42.76
2022-12-23T08:46:55.318Z,42.76
2022-12-23T08:47:55.291Z,42.76
2022-12-23T08:48:55.327Z,42.74
2022-12-23T08:49:55.349Z,42.76
2022-12-23T08:50:55.316Z,42.76
2022-12-23T08:51:55.352Z,42.76
2022-12-23T08:52:55.335Z,42.76
2022-12-23T08:54:00.218Z,42.76
2022-12-23T08:54:55.387Z,42.66
2022-12-23T08:55:55.377Z,42.66
2022-12-23T08:56:55.343Z,42.66
2022-12-23T08:57:55.399Z,42.66
2022-12-23T08:58:55.411Z,42.66
2022-12-23T08:59:55.413Z,42.66
2022-12-23T09:00:56.382Z,42.66
2022-12-23T09:01:55.529Z,42.63
2022-12-23T09:02:55.579Z,42.55
2022-12-23T09:03:55.543Z,42.66
2022-12-23T09:04:55.458Z,42.55
2022-12-23T09:05:55.460Z,42.55
2022-12-23T09:06:55.474Z,42.55
2022-12-23T09:07:55.488Z,42.66
2022-12-23T09:08:55.529Z,42.66
2022-12-23T09:09:55.591Z,42.63
2022-12-23T09:10:55.577Z,42.63
2022-12-23T09:11:55.539Z,42.54
2022-12-23T09:12:57.972Z,42.54
2022-12-23T09:13:55.603Z,42.43
2022-12-23T09:14:55.578Z,42.43
2022-12-23T09:15:55.739Z,42.43
2022-12-23T09:16:55.817Z,42.33
2022-12-23T09:17:58.350Z,42.33
2022-12-23T09:18:55.660Z,42.33
2022-12-23T09:19:55.694Z,42.33
2022-12-23T09:20:55.667Z,42.33
2022-12-23T09:21:55.662Z,42.33
2022-12-23T09:22:55.680Z,42.43
2022-12-23T09:23:55.801Z,42.93
2022-12-23T09:24:58.636Z,42.93
2022-12-23T09:25:55.738Z,42.93
2022-12-23T09:26:55.688Z,42.83
2022-12-23T09:27:55.646Z,42.74
2022-12-23T09:28:55.687Z,42.74
2022-12-23T09:29:55.711Z,42.63
2022-12-23T09:30:55.741Z,42.63
2022-12-23T09:31:55.849Z,42.63
2022-12-23T09:32:55.698Z,42.63
2022-12-23T09:33:55.737Z,42.63
2022-12-23T09:34:55.788Z,42.63
2022-12-23T09:35:55.759Z,42.74
2022-12-23T09:36:55.792Z,42.74
2022-12-23T09:37:55.818Z,42.74
2022-12-23T09:38:55.842Z,42.74
2022-12-23T09:39:55.825Z,42.74
2022-12-23T09:40:56.031Z,42.74
2022-12-23T09:41:55.882Z,42.74
2022-12-23T09:42:55.854Z,42.83
2022-12-23T09:43:55.887Z,42.83
2022-12-23T09:44:55.917Z,42.83
2022-12-23T09:45:56.094Z,42.83
2022-12-23T09:46:56.166Z,42.83
2022-12-23T09:47:56.004Z,42.85
2022-12-23T09:48:56.438Z,42.85
2022-12-23T09:49:56.013Z,42.85
2022-12-23T09:50:55.970Z,42.85
2022-12-23T09:51:56.044Z,42.85
2022-12-23T09:52:56.045Z,42.85
2022-12-23T09:53:56.019Z,42.85
2022-12-23T09:54:56.066Z,42.83
2022-12-23T09:55:56.077Z,42.83
2022-12-23T09:56:56.058Z,43.04
2022-12-23T09:57:56.081Z,43.24
2022-12-23T09:58:56.114Z,43.33
2022-12-23T09:59:56.130Z,43.43
2022-12-23T10:00:56.155Z,43.54
2022-12-23T10:01:56.381Z,43.54
2022-12-23T10:02:56.407Z,43.63
2022-12-23T10:03:56.271Z,43.54
2022-12-23T10:04:56.221Z,43.54
2022-12-23T10:05:56.284Z,43.43
2022-12-23T10:07:00.999Z,43.43
2022-12-23T10:07:56.261Z,43.43
2022-12-23T10:08:56.339Z,43.33
2022-12-23T10:09:56.519Z,43.33
2022-12-23T10:10:56.268Z,43.33
2022-12-23T10:11:56.299Z,43.33
2022-12-23T10:12:56.282Z,43.33
2022-12-23T10:13:56.327Z,43.33
2022-12-23T10:14:56.318Z,43.33
2022-12-23T10:15:56.465Z,43.43
2022-12-23T10:16:56.358Z,43.43
2022-12-23T10:17:56.606Z,43.43
2022-12-23T10:18:56.652Z,43.43
2022-12-23T10:19:56.432Z,43.43
2022-12-23T10:20:56.583Z,43.43
2022-12-23T10:21:56.404Z,43.43
2022-12-23T10:22:56.506Z,43.43
2022-12-23T10:23:56.568Z,43.43
2022-12-23T10:24:56.494Z,43.54
2022-12-23T10:25:56.513Z,43.54
2022-12-23T10:26:56.465Z,43.84
2022-12-23T10:27:56.450Z,43.74
2022-12-23T10:28:56.475Z,43.63
2022-12-23T10:29:56.507Z,43.63
2022-12-23T10:31:23.810Z,43.74
2022-12-23T10:31:56.686Z,43.85
2022-12-23T10:32:56.533Z,43.93
2022-12-23T10:33:56.622Z,43.93
2022-12-23T10:34:56.629Z,44.06
2022-12-23T10:35:56.625Z,44.06
2022-12-23T10:36:56.716Z,44.04
2022-12-23T10:37:56.646Z,44.06
2022-12-23T10:38:56.676Z,44.06
2022-12-23T10:39:56.712Z,44.04
2022-12-23T10:40:56.728Z,44.06
2022-12-23T10:41:56.761Z,43.96
2022-12-23T10:42:56.765Z,43.96
2022-12-23T10:43:56.759Z,43.93
2022-12-23T10:44:56.791Z,43.96
2022-12-23T10:45:56.833Z,43.96
2022-12-23T10:46:56.968Z,43.96
2022-12-23T10:47:56.856Z,43.96
2022-12-23T10:48:56.816Z,43.96
2022-12-23T10:49:56.863Z,43.85
2022-12-23T10:50:56.873Z,43.85
2022-12-23T10:51:56.916Z,43.85
2022-12-23T10:52:56.907Z,43.85
2022-12-23T10:53:56.959Z,43.85
2022-12-23T10:54:56.937Z,43.85
2022-12-23T10:55:56.966Z,43.85
2022-12-23T10:56:56.980Z,43.85
2022-12-23T10:57:56.995Z,43.85
2022-12-23T10:58:57.017Z,43.85
2022-12-23T10:59:57.029Z,43.85
2022-12-23T11:00:57.156Z,43.85
2022-12-23T11:01:57.329Z,43.85
2022-12-23T11:02:57.252Z,43.85
2022-12-23T11:03:57.057Z,43.85
2022-12-23T11:04:57.104Z,43.85
2022-12-23T11:05:57.128Z,43.85
2022-12-23T11:07:26.356Z,43.76
2022-12-23T11:07:57.111Z,43.85
2022-12-23T11:08:57.116Z,43.85
2022-12-23T11:09:57.136Z,43.85
2022-12-23T11:10:57.151Z,43.85
2022-12-23T11:11:57.189Z,43.76
2022-12-23T11:12:57.205Z,43.85
2022-12-23T11:13:57.223Z,43.85
2022-12-23T11:14:57.264Z,43.85
2022-12-23T11:15:57.276Z,43.85
2022-12-23T11:16:57.260Z,43.76
2022-12-23T11:17:57.388Z,43.76
2022-12-23T11:18:57.361Z,43.76
2022-12-23T11:19:57.428Z,43.76
2022-12-23T11:20:57.405Z,43.76
2022-12-23T11:21:57.472Z,43.76
2022-12-23T11:22:57.423Z,43.76
2022-12-23T11:23:57.434Z,43.85
2022-12-23T11:24:57.481Z,43.76
2022-12-23T11:25:57.499Z,43.76
2022-12-23T11:26:57.419Z,43.76
2022-12-23T11:27:57.478Z,43.76
2022-12-23T11:28:57.633Z,43.76
2022-12-23T11:29:57.537Z,43.77
2022-12-23T11:30:57.690Z,43.76
2022-12-23T11:31:57.659Z,43.76
2022-12-23T11:32:57.526Z,43.76
2022-12-23T11:33:57.539Z,43.77
2022-12-23T11:34:57.702Z,43.77
2022-12-23T11:35:57.654Z,43.77
2022-12-23T11:37:03.276Z,43.77
2022-12-23T11:37:57.818Z,43.77
2022-12-23T11:38:57.595Z,43.77
2022-12-23T11:39:57.618Z,43.77
2022-12-23T11:40:57.635Z,43.77
2022-12-23T11:41:57.606Z,43.77
2022-12-23T11:42:57.608Z,43.77
2022-12-23T11:43:57.645Z,43.77
2022-12-23T11:44:57.716Z,43.68
2022-12-23T11:45:57.709Z,43.88
2022-12-23T11:46:57.656Z,43.77
2022-12-23T11:47:57.669Z,43.88
2022-12-23T11:48:57.681Z,43.77
2022-12-23T11:49:57.713Z,43.77
2022-12-23T11:50:57.674Z,43.77
2022-12-23T11:51:57.735Z,43.88
2022-12-23T11:52:57.731Z,43.88
2022-12-23T11:53:57.712Z,43.77
2022-12-23T11:54:57.689Z,43.88
2022-12-23T11:55:57.709Z,43.77
2022-12-23T11:56:57.849Z,43.77
2022-12-23T11:57:57.923Z,43.77
2022-12-23T11:58:57.783Z,43.88
2022-12-23T11:59:57.794Z,43.77
2022-12-23T12:00:57.960Z,43.77
2022-12-23T12:01:57.949Z,43.77
2022-12-23T12:02:57.935Z,43.77
2022-12-23T12:03:57.970Z,43.77
2022-12-23T12:04:57.871Z,43.77
2022-12-23T12:05:57.839Z,43.88
2022-12-23T12:06:57.874Z,43.77
2022-12-23T12:07:57.900Z,43.88
2022-12-23T12:08:57.926Z,43.77
2022-12-23T12:09:57.957Z,43.77
2022-12-23T12:10:57.956Z,43.77
2022-12-23T12:11:57.957Z,43.77
2022-12-23T12:12:57.965Z,43.77
2022-12-23T12:13:57.991Z,43.88
2022-12-23T12:14:58.024Z,43.90
2022-12-23T12:15:58.042Z,43.90
2022-12-23T12:16:58.138Z,43.90
2022-12-23T12:17:58.040Z,43.90
2022-12-23T12:18:58.053Z,44.00
2022-12-23T12:19:58.067Z,44.00
2022-12-23T12:20:58.096Z,44.00
2022-12-23T12:21:58.113Z,43.90
2022-12-23T12:22:58.134Z,43.90
2022-12-23T12:24:17.176Z,43.90
2022-12-23T12:24:58.154Z,44.00
2022-12-23T12:25:58.183Z,43.90
2022-12-23T12:26:58.196Z,44.00
2022-12-23T12:27:58.236Z,44.00
2022-12-23T12:28:58.244Z,43.90
2022-12-23T12:29:59.452Z,44.00
2022-12-23T12:30:58.273Z,44.00
2022-12-23T12:31:58.251Z,44.00
2022-12-23T12:32:58.261Z,43.90
2022-12-23T12:33:58.281Z,43.90
2022-12-23T12:34:58.305Z,44.00
2022-12-23T12:36:04.979Z,43.90
2022-12-23T12:36:58.335Z,44.00
2022-12-23T12:37:58.307Z,44.00
2022-12-23T12:38:58.341Z,44.00
2022-12-23T12:39:58.362Z,44.00
2022-12-23T12:40:58.395Z,44.00
2022-12-23T12:42:05.044Z,43.90
2022-12-23T12:42:58.452Z,44.00
2022-12-23T12:43:58.451Z,43.90
2022-12-23T12:44:58.472Z,43.90
2022-12-23T12:45:58.508Z,43.90
2022-12-23T12:46:58.456Z,43.90
2022-12-23T12:48:06.046Z,43.90
2022-12-23T12:48:58.503Z,44.00
2022-12-23T12:49:58.517Z,43.90
2022-12-23T12:50:58.519Z,43.90
2022-12-23T12:51:58.539Z,43.90
2022-12-23T12:52:58.581Z,43.90
2022-12-23T12:54:04.694Z,43.90